sensor_id;sensor_type;location;lat;lon;timestamp;P1;durP1;ratioP1;P2;durP2;ratioP2
22715;SDS011;11525;51.152;4.456;2024-01-25T00:01:19;75.90;;;15.77;;
22715;SDS011;11525;51.152;4.456;2024-01-25T00:03:44;81.07;;;15.43;;
22715;SDS011;11525;51.152;4.456;2024-01-25T00:06:10;70.65;;;15.23;;
22715;SDS011;11525;51.152;4.456;2024-01-25T00:08:36;71.07;;;14.40;;
22715;SDS011;11525;51.152;4.456;2024-01-25T00:11:02;69.63;;;15.77;;
22715;SDS011;11525;51.152;4.456;2024-01-25T00:13:28;74.63;;;16.30;;
22715;SDS011;11525;51.152;4.456;2024-01-25T00:15:54;62.78;;;14.45;;
22715;SDS011;11525;51.152;4.456;2024-01-25T00:18:20;76.38;;;16.75;;
22715;SDS011;11525;51.152;4.456;2024-01-25T00:20:45;90.00;;;17.27;;
22715;SDS011;11525;51.152;4.456;2024-01-25T00:23:11;62.42;;;15.63;;
22715;SDS011;11525;51.152;4.456;2024-01-25T00:25:37;82.70;;;17.30;;
22715;SDS011;11525;51.152;4.456;2024-01-25T00:28:02;72.28;;;14.63;;
22715;SDS011;11525;51.152;4.456;2024-01-25T00:30:28;70.13;;;14.50;;
22715;SDS011;11525;51.152;4.456;2024-01-25T00:32:56;72.80;;;15.50;;
22715;SDS011;11525;51.152;4.456;2024-01-25T00:35:22;78.78;;;16.05;;
22715;SDS011;11525;51.152;4.456;2024-01-25T00:37:49;73.93;;;15.82;;
22715;SDS011;11525;51.152;4.456;2024-01-25T00:40:15;81.10;;;16.75;;
22715;SDS011;11525;51.152;4.456;2024-01-25T00:42:41;74.13;;;15.73;;
22715;SDS011;11525;51.152;4.456;2024-01-25T00:45:08;72.25;;;15.50;;
22715;SDS011;11525;51.152;4.456;2024-01-25T00:47:35;72.07;;;15.23;;
22715;SDS011;11525;51.152;4.456;2024-01-25T00:50:01;70.20;;;14.02;;
22715;SDS011;11525;51.152;4.456;2024-01-25T00:52:27;64.43;;;14.40;;
22715;SDS011;11525;51.152;4.456;2024-01-25T00:54:53;55.45;;;13.38;;
22715;SDS011;11525;51.152;4.456;2024-01-25T00:57:19;72.28;;;15.10;;
22715;SDS011;11525;51.152;4.456;2024-01-25T00:59:45;56.03;;;13.65;;
22715;SDS011;11525;51.152;4.456;2024-01-25T01:02:12;74.47;;;15.73;;
22715;SDS011;11525;51.152;4.456;2024-01-25T01:04:39;68.95;;;15.73;;
22715;SDS011;11525;51.152;4.456;2024-01-25T01:07:05;70.85;;;14.80;;
22715;SDS011;11525;51.152;4.456;2024-01-25T01:09:31;84.53;;;16.10;;
22715;SDS011;11525;51.152;4.456;2024-01-25T01:11:57;74.07;;;14.73;;
22715;SDS011;11525;51.152;4.456;2024-01-25T01:14:22;85.60;;;16.30;;
22715;SDS011;11525;51.152;4.456;2024-01-25T01:16:48;60.80;;;13.45;;
22715;SDS011;11525;51.152;4.456;2024-01-25T01:19:15;80.10;;;14.50;;
22715;SDS011;11525;51.152;4.456;2024-01-25T01:21:41;84.78;;;15.77;;
22715;SDS011;11525;51.152;4.456;2024-01-25T01:24:09;76.63;;;14.30;;
22715;SDS011;11525;51.152;4.456;2024-01-25T01:26:36;61.13;;;13.65;;
22715;SDS011;11525;51.152;4.456;2024-01-25T01:29:02;78.07;;;16.90;;
22715;SDS011;11525;51.152;4.456;2024-01-25T01:31:28;79.05;;;15.25;;
22715;SDS011;11525;51.152;4.456;2024-01-25T01:33:54;69.20;;;14.73;;
22715;SDS011;11525;51.152;4.456;2024-01-25T01:36:19;84.72;;;15.48;;
22715;SDS011;11525;51.152;4.456;2024-01-25T01:38:45;66.63;;;13.23;;
22715;SDS011;11525;51.152;4.456;2024-01-25T01:41:11;64.18;;;14.90;;
22715;SDS011;11525;51.152;4.456;2024-01-25T01:43:40;73.15;;;14.68;;
22715;SDS011;11525;51.152;4.456;2024-01-25T01:46:39;73.45;;;13.55;;
22715;SDS011;11525;51.152;4.456;2024-01-25T01:48:59;88.05;;;15.23;;
22715;SDS011;11525;51.152;4.456;2024-01-25T01:51:26;83.90;;;14.95;;
22715;SDS011;11525;51.152;4.456;2024-01-25T01:53:53;63.47;;;13.35;;
22715;SDS011;11525;51.152;4.456;2024-01-25T01:56:19;67.13;;;14.88;;
22715;SDS011;11525;51.152;4.456;2024-01-25T01:58:45;63.08;;;13.88;;
22715;SDS011;11525;51.152;4.456;2024-01-25T02:01:12;66.00;;;14.35;;
22715;SDS011;11525;51.152;4.456;2024-01-25T02:03:38;71.63;;;14.95;;
22715;SDS011;11525;51.152;4.456;2024-01-25T02:06:04;82.80;;;15.45;;
22715;SDS011;11525;51.152;4.456;2024-01-25T02:08:31;65.38;;;13.48;;
22715;SDS011;11525;51.152;4.456;2024-01-25T02:10:58;78.75;;;14.82;;
22715;SDS011;11525;51.152;4.456;2024-01-25T02:13:23;57.65;;;13.10;;
22715;SDS011;11525;51.152;4.456;2024-01-25T02:15:49;48.35;;;12.45;;
22715;SDS011;11525;51.152;4.456;2024-01-25T02:18:15;86.13;;;13.98;;
22715;SDS011;11525;51.152;4.456;2024-01-25T02:20:40;81.72;;;16.77;;
22715;SDS011;11525;51.152;4.456;2024-01-25T02:23:06;78.00;;;14.68;;
22715;SDS011;11525;51.152;4.456;2024-01-25T02:25:32;94.05;;;17.20;;
22715;SDS011;11525;51.152;4.456;2024-01-25T02:27:58;64.88;;;13.43;;
22715;SDS011;11525;51.152;4.456;2024-01-25T02:30:23;49.17;;;11.75;;
22715;SDS011;11525;51.152;4.456;2024-01-25T02:32:49;75.32;;;15.30;;
22715;SDS011;11525;51.152;4.456;2024-01-25T02:35:14;90.45;;;16.55;;
22715;SDS011;11525;51.152;4.456;2024-01-25T02:37:40;73.80;;;13.20;;
22715;SDS011;11525;51.152;4.456;2024-01-25T02:40:06;57.20;;;12.52;;
22715;SDS011;11525;51.152;4.456;2024-01-25T02:42:32;73.10;;;15.38;;
22715;SDS011;11525;51.152;4.456;2024-01-25T02:44:58;79.82;;;14.85;;
22715;SDS011;11525;51.152;4.456;2024-01-25T02:47:23;81.85;;;15.05;;
22715;SDS011;11525;51.152;4.456;2024-01-25T02:49:49;87.28;;;16.33;;
22715;SDS011;11525;51.152;4.456;2024-01-25T02:52:15;83.45;;;14.68;;
22715;SDS011;11525;51.152;4.456;2024-01-25T02:54:40;78.43;;;16.80;;
22715;SDS011;11525;51.152;4.456;2024-01-25T02:57:06;85.22;;;16.10;;
22715;SDS011;11525;51.152;4.456;2024-01-25T02:59:32;73.95;;;14.50;;
22715;SDS011;11525;51.152;4.456;2024-01-25T03:01:57;73.32;;;15.27;;
22715;SDS011;11525;51.152;4.456;2024-01-25T03:04:23;73.25;;;15.35;;
22715;SDS011;11525;51.152;4.456;2024-01-25T03:06:49;73.75;;;15.45;;
22715;SDS011;11525;51.152;4.456;2024-01-25T03:09:14;66.45;;;13.77;;
22715;SDS011;11525;51.152;4.456;2024-01-25T03:11:40;66.57;;;14.63;;
22715;SDS011;11525;51.152;4.456;2024-01-25T03:14:06;56.20;;;12.88;;
22715;SDS011;11525;51.152;4.456;2024-01-25T03:16:31;73.95;;;14.27;;
22715;SDS011;11525;51.152;4.456;2024-01-25T03:18:57;81.95;;;15.02;;
22715;SDS011;11525;51.152;4.456;2024-01-25T03:21:23;93.43;;;15.98;;
22715;SDS011;11525;51.152;4.456;2024-01-25T03:23:48;77.88;;;16.23;;
22715;SDS011;11525;51.152;4.456;2024-01-25T03:26:14;55.63;;;12.68;;
22715;SDS011;11525;51.152;4.456;2024-01-25T03:28:40;55.92;;;14.05;;
22715;SDS011;11525;51.152;4.456;2024-01-25T03:31:06;60.80;;;13.35;;
22715;SDS011;11525;51.152;4.456;2024-01-25T03:33:32;59.60;;;13.73;;
22715;SDS011;11525;51.152;4.456;2024-01-25T03:36:04;52.20;;;13.50;;
22715;SDS011;11525;51.152;4.456;2024-01-25T03:38:31;45.42;;;10.88;;
22715;SDS011;11525;51.152;4.456;2024-01-25T03:40:57;55.13;;;13.65;;
22715;SDS011;11525;51.152;4.456;2024-01-25T03:43:24;63.30;;;13.30;;
22715;SDS011;11525;51.152;4.456;2024-01-25T03:45:50;78.93;;;16.83;;
22715;SDS011;11525;51.152;4.456;2024-01-25T03:48:16;89.10;;;15.82;;
22715;SDS011;11525;51.152;4.456;2024-01-25T03:50:41;64.25;;;14.32;;
22715;SDS011;11525;51.152;4.456;2024-01-25T03:53:08;58.20;;;13.57;;
22715;SDS011;11525;51.152;4.456;2024-01-25T03:55:33;78.25;;;14.45;;
22715;SDS011;11525;51.152;4.456;2024-01-25T03:57:59;71.60;;;14.50;;
22715;SDS011;11525;51.152;4.456;2024-01-25T04:00:25;53.50;;;13.05;;
22715;SDS011;11525;51.152;4.456;2024-01-25T04:02:50;55.10;;;12.93;;
22715;SDS011;11525;51.152;4.456;2024-01-25T04:05:16;41.42;;;11.07;;
22715;SDS011;11525;51.152;4.456;2024-01-25T04:07:42;41.45;;;10.70;;
22715;SDS011;11525;51.152;4.456;2024-01-25T04:10:07;50.13;;;13.43;;
22715;SDS011;11525;51.152;4.456;2024-01-25T04:12:34;75.97;;;16.88;;
22715;SDS011;11525;51.152;4.456;2024-01-25T04:14:59;75.97;;;16.13;;
22715;SDS011;11525;51.152;4.456;2024-01-25T04:17:25;72.80;;;14.50;;
22715;SDS011;11525;51.152;4.456;2024-01-25T04:19:51;81.15;;;15.15;;
22715;SDS011;11525;51.152;4.456;2024-01-25T04:22:16;84.05;;;15.88;;
22715;SDS011;11525;51.152;4.456;2024-01-25T04:24:42;95.65;;;17.92;;
22715;SDS011;11525;51.152;4.456;2024-01-25T04:27:09;82.45;;;17.05;;
22715;SDS011;11525;51.152;4.456;2024-01-25T04:29:38;68.78;;;14.98;;
22715;SDS011;11525;51.152;4.456;2024-01-25T04:32:04;45.58;;;11.93;;
22715;SDS011;11525;51.152;4.456;2024-01-25T04:34:30;54.85;;;12.52;;
22715;SDS011;11525;51.152;4.456;2024-01-25T04:36:56;71.05;;;14.10;;
22715;SDS011;11525;51.152;4.456;2024-01-25T04:39:22;64.97;;;14.52;;
22715;SDS011;11525;51.152;4.456;2024-01-25T04:41:47;60.42;;;13.48;;
22715;SDS011;11525;51.152;4.456;2024-01-25T04:44:13;59.53;;;14.00;;
22715;SDS011;11525;51.152;4.456;2024-01-25T04:46:39;59.85;;;11.65;;
22715;SDS011;11525;51.152;4.456;2024-01-25T04:49:06;60.17;;;12.23;;
22715;SDS011;11525;51.152;4.456;2024-01-25T04:51:32;43.85;;;12.15;;
22715;SDS011;11525;51.152;4.456;2024-01-25T04:53:58;48.05;;;12.98;;
22715;SDS011;11525;51.152;4.456;2024-01-25T04:56:23;80.43;;;15.23;;
22715;SDS011;11525;51.152;4.456;2024-01-25T04:58:49;61.47;;;13.40;;
22715;SDS011;11525;51.152;4.456;2024-01-25T05:01:15;62.63;;;14.40;;
22715;SDS011;11525;51.152;4.456;2024-01-25T05:03:40;78.70;;;16.42;;
22715;SDS011;11525;51.152;4.456;2024-01-25T05:06:06;69.32;;;13.70;;
22715;SDS011;11525;51.152;4.456;2024-01-25T05:08:31;78.85;;;15.68;;
22715;SDS011;11525;51.152;4.456;2024-01-25T05:10:58;72.13;;;14.95;;
22715;SDS011;11525;51.152;4.456;2024-01-25T05:13:24;70.18;;;14.52;;
22715;SDS011;11525;51.152;4.456;2024-01-25T05:15:49;64.50;;;14.97;;
22715;SDS011;11525;51.152;4.456;2024-01-25T05:18:15;56.42;;;14.45;;
22715;SDS011;11525;51.152;4.456;2024-01-25T05:20:41;80.07;;;16.63;;
22715;SDS011;11525;51.152;4.456;2024-01-25T05:23:07;79.25;;;15.90;;
22715;SDS011;11525;51.152;4.456;2024-01-25T05:25:34;67.13;;;14.85;;
22715;SDS011;11525;51.152;4.456;2024-01-25T05:27:59;45.13;;;11.23;;
22715;SDS011;11525;51.152;4.456;2024-01-25T05:30:25;48.75;;;11.57;;
22715;SDS011;11525;51.152;4.456;2024-01-25T05:32:51;48.15;;;11.52;;
22715;SDS011;11525;51.152;4.456;2024-01-25T05:35:18;61.80;;;13.93;;
22715;SDS011;11525;51.152;4.456;2024-01-25T05:37:45;74.45;;;16.08;;
22715;SDS011;11525;51.152;4.456;2024-01-25T05:40:10;67.88;;;15.38;;
22715;SDS011;11525;51.152;4.456;2024-01-25T05:42:37;61.20;;;14.52;;
22715;SDS011;11525;51.152;4.456;2024-01-25T05:45:03;69.80;;;14.73;;
22715;SDS011;11525;51.152;4.456;2024-01-25T05:47:29;64.45;;;15.25;;
22715;SDS011;11525;51.152;4.456;2024-01-25T05:49:55;66.63;;;15.20;;
22715;SDS011;11525;51.152;4.456;2024-01-25T05:52:21;70.93;;;15.00;;
22715;SDS011;11525;51.152;4.456;2024-01-25T05:54:48;53.83;;;12.90;;
22715;SDS011;11525;51.152;4.456;2024-01-25T05:57:14;58.90;;;12.88;;
22715;SDS011;11525;51.152;4.456;2024-01-25T05:59:40;55.75;;;12.10;;
22715;SDS011;11525;51.152;4.456;2024-01-25T06:02:06;88.93;;;15.15;;
22715;SDS011;11525;51.152;4.456;2024-01-25T06:04:33;83.32;;;17.45;;
22715;SDS011;11525;51.152;4.456;2024-01-25T06:06:59;63.47;;;15.88;;
22715;SDS011;11525;51.152;4.456;2024-01-25T06:09:25;74.25;;;16.90;;
22715;SDS011;11525;51.152;4.456;2024-01-25T06:11:50;69.13;;;15.90;;
22715;SDS011;11525;51.152;4.456;2024-01-25T06:14:16;57.40;;;13.60;;
22715;SDS011;11525;51.152;4.456;2024-01-25T06:16:42;58.90;;;13.02;;
22715;SDS011;11525;51.152;4.456;2024-01-25T06:19:09;58.72;;;14.23;;
22715;SDS011;11525;51.152;4.456;2024-01-25T06:21:35;85.72;;;18.02;;
22715;SDS011;11525;51.152;4.456;2024-01-25T06:24:02;70.35;;;16.35;;
22715;SDS011;11525;51.152;4.456;2024-01-25T06:26:28;89.60;;;17.65;;
22715;SDS011;11525;51.152;4.456;2024-01-25T06:28:54;83.88;;;17.58;;
22715;SDS011;11525;51.152;4.456;2024-01-25T06:31:20;100.03;;;19.20;;
22715;SDS011;11525;51.152;4.456;2024-01-25T06:33:45;67.25;;;15.02;;
22715;SDS011;11525;51.152;4.456;2024-01-25T06:36:15;57.53;;;14.20;;
22715;SDS011;11525;51.152;4.456;2024-01-25T06:38:41;81.13;;;17.77;;
22715;SDS011;11525;51.152;4.456;2024-01-25T06:41:08;89.05;;;18.63;;
22715;SDS011;11525;51.152;4.456;2024-01-25T06:43:34;90.75;;;18.55;;
22715;SDS011;11525;51.152;4.456;2024-01-25T06:45:59;74.32;;;16.65;;
22715;SDS011;11525;51.152;4.456;2024-01-25T06:48:25;86.25;;;16.90;;
22715;SDS011;11525;51.152;4.456;2024-01-25T06:50:51;81.95;;;17.05;;
22715;SDS011;11525;51.152;4.456;2024-01-25T06:53:16;95.07;;;18.85;;
22715;SDS011;11525;51.152;4.456;2024-01-25T06:55:42;102.15;;;21.15;;
22715;SDS011;11525;51.152;4.456;2024-01-25T06:58:08;78.18;;;17.40;;
22715;SDS011;11525;51.152;4.456;2024-01-25T07:00:34;88.40;;;20.25;;
22715;SDS011;11525;51.152;4.456;2024-01-25T07:02:59;97.07;;;19.83;;
22715;SDS011;11525;51.152;4.456;2024-01-25T07:05:25;67.82;;;16.05;;
22715;SDS011;11525;51.152;4.456;2024-01-25T07:07:51;62.95;;;15.45;;
22715;SDS011;11525;51.152;4.456;2024-01-25T07:10:17;75.95;;;17.73;;
22715;SDS011;11525;51.152;4.456;2024-01-25T07:12:43;93.95;;;18.83;;
22715;SDS011;11525;51.152;4.456;2024-01-25T07:15:09;84.82;;;19.05;;
22715;SDS011;11525;51.152;4.456;2024-01-25T07:17:35;84.30;;;16.80;;
22715;SDS011;11525;51.152;4.456;2024-01-25T07:20:00;80.00;;;17.65;;
22715;SDS011;11525;51.152;4.456;2024-01-25T07:22:26;94.18;;;19.40;;
22715;SDS011;11525;51.152;4.456;2024-01-25T07:24:51;75.68;;;16.60;;
22715;SDS011;11525;51.152;4.456;2024-01-25T07:27:17;84.57;;;18.75;;
22715;SDS011;11525;51.152;4.456;2024-01-25T07:29:43;85.07;;;18.27;;
22715;SDS011;11525;51.152;4.456;2024-01-25T07:32:10;90.45;;;19.33;;
22715;SDS011;11525;51.152;4.456;2024-01-25T07:34:36;86.03;;;18.88;;
22715;SDS011;11525;51.152;4.456;2024-01-25T07:37:02;87.85;;;18.77;;
22715;SDS011;11525;51.152;4.456;2024-01-25T07:39:28;62.40;;;15.98;;
22715;SDS011;11525;51.152;4.456;2024-01-25T07:41:54;67.70;;;16.85;;
22715;SDS011;11525;51.152;4.456;2024-01-25T07:44:20;94.90;;;18.90;;
22715;SDS011;11525;51.152;4.456;2024-01-25T07:46:45;72.55;;;16.73;;
22715;SDS011;11525;51.152;4.456;2024-01-25T07:49:12;77.55;;;18.02;;
22715;SDS011;11525;51.152;4.456;2024-01-25T07:51:38;85.72;;;17.52;;
22715;SDS011;11525;51.152;4.456;2024-01-25T07:54:03;76.68;;;17.92;;
22715;SDS011;11525;51.152;4.456;2024-01-25T07:56:29;70.78;;;18.95;;
22715;SDS011;11525;51.152;4.456;2024-01-25T07:58:55;70.03;;;17.15;;
22715;SDS011;11525;51.152;4.456;2024-01-25T08:01:21;88.68;;;18.25;;
22715;SDS011;11525;51.152;4.456;2024-01-25T08:03:47;86.10;;;18.98;;
22715;SDS011;11525;51.152;4.456;2024-01-25T08:06:13;64.35;;;15.05;;
22715;SDS011;11525;51.152;4.456;2024-01-25T08:08:38;64.57;;;15.63;;
22715;SDS011;11525;51.152;4.456;2024-01-25T08:11:04;63.55;;;15.85;;
22715;SDS011;11525;51.152;4.456;2024-01-25T08:13:30;84.25;;;18.85;;
22715;SDS011;11525;51.152;4.456;2024-01-25T08:15:56;60.03;;;16.33;;
22715;SDS011;11525;51.152;4.456;2024-01-25T08:18:22;90.65;;;20.10;;
22715;SDS011;11525;51.152;4.456;2024-01-25T08:20:48;79.55;;;17.00;;
22715;SDS011;11525;51.152;4.456;2024-01-25T08:23:15;69.72;;;16.58;;
22715;SDS011;11525;51.152;4.456;2024-01-25T08:25:41;75.07;;;17.70;;
22715;SDS011;11525;51.152;4.456;2024-01-25T08:28:07;80.43;;;19.05;;
22715;SDS011;11525;51.152;4.456;2024-01-25T08:30:32;66.43;;;17.55;;
22715;SDS011;11525;51.152;4.456;2024-01-25T08:32:58;86.63;;;18.45;;
22715;SDS011;11525;51.152;4.456;2024-01-25T08:35:24;85.07;;;18.63;;
22715;SDS011;11525;51.152;4.456;2024-01-25T08:37:50;66.07;;;16.83;;
22715;SDS011;11525;51.152;4.456;2024-01-25T08:40:16;80.30;;;18.75;;
22715;SDS011;11525;51.152;4.456;2024-01-25T08:42:42;66.72;;;17.00;;
22715;SDS011;11525;51.152;4.456;2024-01-25T08:45:07;69.70;;;16.98;;
22715;SDS011;11525;51.152;4.456;2024-01-25T08:47:37;70.20;;;18.35;;
22715;SDS011;11525;51.152;4.456;2024-01-25T08:50:03;61.40;;;17.92;;
22715;SDS011;11525;51.152;4.456;2024-01-25T08:52:31;62.67;;;17.73;;
22715;SDS011;11525;51.152;4.456;2024-01-25T08:54:57;71.88;;;18.90;;
22715;SDS011;11525;51.152;4.456;2024-01-25T08:57:22;75.35;;;16.83;;
22715;SDS011;11525;51.152;4.456;2024-01-25T08:59:48;58.10;;;16.80;;
22715;SDS011;11525;51.152;4.456;2024-01-25T09:02:14;64.53;;;17.80;;
22715;SDS011;11525;51.152;4.456;2024-01-25T09:04:39;60.22;;;17.83;;
22715;SDS011;11525;51.152;4.456;2024-01-25T09:07:08;63.17;;;17.98;;
22715;SDS011;11525;51.152;4.456;2024-01-25T09:09:34;66.95;;;17.98;;
22715;SDS011;11525;51.152;4.456;2024-01-25T09:12:00;58.97;;;16.73;;
22715;SDS011;11525;51.152;4.456;2024-01-25T09:14:25;49.67;;;17.13;;
22715;SDS011;11525;51.152;4.456;2024-01-25T09:16:51;51.70;;;17.23;;
22715;SDS011;11525;51.152;4.456;2024-01-25T09:19:17;52.08;;;18.10;;
22715;SDS011;11525;51.152;4.456;2024-01-25T09:21:42;44.20;;;17.35;;
22715;SDS011;11525;51.152;4.456;2024-01-25T09:24:08;55.83;;;18.00;;
22715;SDS011;11525;51.152;4.456;2024-01-25T09:26:34;43.63;;;17.77;;
22715;SDS011;11525;51.152;4.456;2024-01-25T09:28:59;44.38;;;17.15;;
22715;SDS011;11525;51.152;4.456;2024-01-25T09:31:25;54.15;;;18.38;;
22715;SDS011;11525;51.152;4.456;2024-01-25T09:33:50;40.35;;;16.92;;
22715;SDS011;11525;51.152;4.456;2024-01-25T09:36:16;42.10;;;18.73;;
22715;SDS011;11525;51.152;4.456;2024-01-25T09:38:42;44.22;;;17.63;;
22715;SDS011;11525;51.152;4.456;2024-01-25T09:41:08;58.88;;;24.25;;
22715;SDS011;11525;51.152;4.456;2024-01-25T09:43:35;47.65;;;22.60;;
22715;SDS011;11525;51.152;4.456;2024-01-25T09:46:01;61.90;;;26.30;;
22715;SDS011;11525;51.152;4.456;2024-01-25T09:48:27;65.55;;;28.42;;
22715;SDS011;11525;51.152;4.456;2024-01-25T09:50:55;67.35;;;27.65;;
22715;SDS011;11525;51.152;4.456;2024-01-25T09:53:21;68.35;;;28.95;;
22715;SDS011;11525;51.152;4.456;2024-01-25T09:56:05;76.28;;;26.83;;
22715;SDS011;11525;51.152;4.456;2024-01-25T09:58:39;59.63;;;27.65;;
22715;SDS011;11525;51.152;4.456;2024-01-25T10:01:10;47.92;;;22.50;;
22715;SDS011;11525;51.152;4.456;2024-01-25T10:03:38;35.35;;;21.17;;
22715;SDS011;11525;51.152;4.456;2024-01-25T10:06:07;36.58;;;21.23;;
22715;SDS011;11525;51.152;4.456;2024-01-25T10:08:33;41.05;;;20.85;;
22715;SDS011;11525;51.152;4.456;2024-01-25T10:10:59;33.90;;;20.52;;
22715;SDS011;11525;51.152;4.456;2024-01-25T10:13:25;36.53;;;21.02;;
22715;SDS011;11525;51.152;4.456;2024-01-25T10:15:52;37.70;;;21.48;;
22715;SDS011;11525;51.152;4.456;2024-01-25T10:18:18;38.90;;;21.02;;
22715;SDS011;11525;51.152;4.456;2024-01-25T10:20:44;45.72;;;22.98;;
22715;SDS011;11525;51.152;4.456;2024-01-25T10:23:09;45.78;;;23.20;;
22715;SDS011;11525;51.152;4.456;2024-01-25T10:25:36;42.13;;;22.70;;
22715;SDS011;11525;51.152;4.456;2024-01-25T10:28:05;44.38;;;25.45;;
22715;SDS011;11525;51.152;4.456;2024-01-25T10:30:32;38.92;;;23.13;;
22715;SDS011;11525;51.152;4.456;2024-01-25T10:33:01;45.03;;;24.42;;
22715;SDS011;11525;51.152;4.456;2024-01-25T10:35:28;36.40;;;23.10;;
22715;SDS011;11525;51.152;4.456;2024-01-25T10:37:54;42.97;;;23.25;;
22715;SDS011;11525;51.152;4.456;2024-01-25T10:40:20;50.65;;;25.90;;
22715;SDS011;11525;51.152;4.456;2024-01-25T10:42:47;48.92;;;25.42;;
22715;SDS011;11525;51.152;4.456;2024-01-25T10:45:13;47.80;;;24.92;;
22715;SDS011;11525;51.152;4.456;2024-01-25T10:47:39;51.75;;;27.17;;
22715;SDS011;11525;51.152;4.456;2024-01-25T10:50:11;48.40;;;27.02;;
22715;SDS011;11525;51.152;4.456;2024-01-25T10:52:38;74.22;;;29.10;;
22715;SDS011;11525;51.152;4.456;2024-01-25T10:55:06;104.28;;;60.00;;
22715;SDS011;11525;51.152;4.456;2024-01-25T10:57:42;63.78;;;29.83;;
22715;SDS011;11525;51.152;4.456;2024-01-25T11:00:10;61.50;;;29.35;;
22715;SDS011;11525;51.152;4.456;2024-01-25T11:02:38;75.65;;;31.02;;
22715;SDS011;11525;51.152;4.456;2024-01-25T11:05:17;74.88;;;33.25;;
22715;SDS011;11525;51.152;4.456;2024-01-25T11:07:46;64.05;;;31.80;;
22715;SDS011;11525;51.152;4.456;2024-01-25T11:10:17;77.40;;;31.48;;
22715;SDS011;11525;51.152;4.456;2024-01-25T11:12:59;80.60;;;35.63;;
22715;SDS011;11525;51.152;4.456;2024-01-25T11:15:35;79.35;;;34.50;;
22715;SDS011;11525;51.152;4.456;2024-01-25T11:18:02;84.53;;;34.42;;
22715;SDS011;11525;51.152;4.456;2024-01-25T11:20:31;87.30;;;36.40;;
22715;SDS011;11525;51.152;4.456;2024-01-25T11:23:01;80.88;;;35.42;;
22715;SDS011;11525;51.152;4.456;2024-01-25T11:25:30;76.80;;;34.58;;
22715;SDS011;11525;51.152;4.456;2024-01-25T11:27:57;74.55;;;36.00;;
22715;SDS011;11525;51.152;4.456;2024-01-25T11:30:25;74.93;;;32.25;;
22715;SDS011;11525;51.152;4.456;2024-01-25T11:32:51;70.65;;;33.90;;
22715;SDS011;11525;51.152;4.456;2024-01-25T11:35:16;77.70;;;34.58;;
22715;SDS011;11525;51.152;4.456;2024-01-25T11:37:43;72.70;;;32.40;;
22715;SDS011;11525;51.152;4.456;2024-01-25T11:40:10;73.10;;;31.52;;
22715;SDS011;11525;51.152;4.456;2024-01-25T11:42:37;76.65;;;34.13;;
22715;SDS011;11525;51.152;4.456;2024-01-25T11:45:04;78.63;;;32.63;;
22715;SDS011;11525;51.152;4.456;2024-01-25T11:47:33;75.95;;;33.13;;
22715;SDS011;11525;51.152;4.456;2024-01-25T11:49:59;75.03;;;34.30;;
22715;SDS011;11525;51.152;4.456;2024-01-25T11:52:25;70.15;;;31.95;;
22715;SDS011;11525;51.152;4.456;2024-01-25T11:54:51;83.15;;;32.95;;
22715;SDS011;11525;51.152;4.456;2024-01-25T11:57:17;75.65;;;34.20;;
22715;SDS011;11525;51.152;4.456;2024-01-25T11:59:43;86.65;;;33.97;;
22715;SDS011;11525;51.152;4.456;2024-01-25T12:02:11;73.28;;;31.73;;
22715;SDS011;11525;51.152;4.456;2024-01-25T12:04:38;86.18;;;33.72;;
22715;SDS011;11525;51.152;4.456;2024-01-25T12:07:04;73.70;;;32.05;;
22715;SDS011;11525;51.152;4.456;2024-01-25T12:09:30;76.15;;;30.65;;
22715;SDS011;11525;51.152;4.456;2024-01-25T12:11:56;74.38;;;31.73;;
22715;SDS011;11525;51.152;4.456;2024-01-25T12:14:23;82.15;;;31.52;;
22715;SDS011;11525;51.152;4.456;2024-01-25T12:16:49;75.30;;;32.30;;
22715;SDS011;11525;51.152;4.456;2024-01-25T12:19:15;79.60;;;32.67;;
22715;SDS011;11525;51.152;4.456;2024-01-25T12:21:43;81.57;;;31.75;;
22715;SDS011;11525;51.152;4.456;2024-01-25T12:24:09;74.78;;;30.42;;
22715;SDS011;11525;51.152;4.456;2024-01-25T12:26:35;66.80;;;29.73;;
22715;SDS011;11525;51.152;4.456;2024-01-25T12:29:02;66.40;;;28.73;;
22715;SDS011;11525;51.152;4.456;2024-01-25T12:31:28;77.55;;;28.55;;
22715;SDS011;11525;51.152;4.456;2024-01-25T12:33:54;64.07;;;29.52;;
22715;SDS011;11525;51.152;4.456;2024-01-25T12:36:19;74.43;;;28.30;;
22715;SDS011;11525;51.152;4.456;2024-01-25T12:38:45;72.55;;;29.08;;
22715;SDS011;11525;51.152;4.456;2024-01-25T12:41:11;68.75;;;27.63;;
22715;SDS011;11525;51.152;4.456;2024-01-25T12:43:36;72.00;;;24.27;;
22715;SDS011;11525;51.152;4.456;2024-01-25T12:46:02;56.22;;;25.02;;
22715;SDS011;11525;51.152;4.456;2024-01-25T12:48:28;63.50;;;23.60;;
22715;SDS011;11525;51.152;4.456;2024-01-25T12:50:54;64.55;;;25.08;;
22715;SDS011;11525;51.152;4.456;2024-01-25T12:53:19;56.35;;;21.90;;
22715;SDS011;11525;51.152;4.456;2024-01-25T12:55:45;44.75;;;20.23;;
22715;SDS011;11525;51.152;4.456;2024-01-25T12:58:10;53.50;;;19.10;;
22715;SDS011;11525;51.152;4.456;2024-01-25T13:00:36;45.70;;;17.42;;
22715;SDS011;11525;51.152;4.456;2024-01-25T13:03:02;48.65;;;17.30;;
22715;SDS011;11525;51.152;4.456;2024-01-25T13:05:28;41.05;;;16.73;;
22715;SDS011;11525;51.152;4.456;2024-01-25T13:07:54;39.97;;;16.30;;
22715;SDS011;11525;51.152;4.456;2024-01-25T13:10:20;40.85;;;16.13;;
22715;SDS011;11525;51.152;4.456;2024-01-25T13:12:45;42.15;;;17.17;;
22715;SDS011;11525;51.152;4.456;2024-01-25T13:15:11;44.40;;;18.15;;
22715;SDS011;11525;51.152;4.456;2024-01-25T13:17:37;34.08;;;15.93;;
22715;SDS011;11525;51.152;4.456;2024-01-25T13:20:03;41.75;;;16.58;;
22715;SDS011;11525;51.152;4.456;2024-01-25T13:22:31;39.75;;;16.77;;
22715;SDS011;11525;51.152;4.456;2024-01-25T13:24:58;45.60;;;17.98;;
22715;SDS011;11525;51.152;4.456;2024-01-25T13:27:24;40.15;;;16.75;;
22715;SDS011;11525;51.152;4.456;2024-01-25T13:29:50;33.67;;;14.32;;
22715;SDS011;11525;51.152;4.456;2024-01-25T13:32:16;39.25;;;15.40;;
22715;SDS011;11525;51.152;4.456;2024-01-25T13:34:41;37.05;;;14.05;;
22715;SDS011;11525;51.152;4.456;2024-01-25T13:37:07;36.47;;;16.33;;
22715;SDS011;11525;51.152;4.456;2024-01-25T13:39:33;33.85;;;14.68;;
22715;SDS011;11525;51.152;4.456;2024-01-25T13:41:58;33.85;;;14.70;;
22715;SDS011;11525;51.152;4.456;2024-01-25T13:44:24;32.83;;;14.18;;
22715;SDS011;11525;51.152;4.456;2024-01-25T13:46:50;33.33;;;13.10;;
22715;SDS011;11525;51.152;4.456;2024-01-25T13:49:16;32.70;;;13.13;;
22715;SDS011;11525;51.152;4.456;2024-01-25T13:51:43;25.23;;;11.00;;
22715;SDS011;11525;51.152;4.456;2024-01-25T13:54:09;28.98;;;11.85;;
22715;SDS011;11525;51.152;4.456;2024-01-25T13:56:35;30.48;;;11.45;;
22715;SDS011;11525;51.152;4.456;2024-01-25T13:59:01;25.92;;;11.13;;
22715;SDS011;11525;51.152;4.456;2024-01-25T14:01:26;29.35;;;11.15;;
22715;SDS011;11525;51.152;4.456;2024-01-25T14:03:52;32.33;;;11.18;;
22715;SDS011;11525;51.152;4.456;2024-01-25T14:06:18;28.05;;;11.48;;
22715;SDS011;11525;51.152;4.456;2024-01-25T14:08:44;25.58;;;10.32;;
22715;SDS011;11525;51.152;4.456;2024-01-25T14:11:09;29.40;;;10.95;;
22715;SDS011;11525;51.152;4.456;2024-01-25T14:13:35;24.15;;;12.15;;
22715;SDS011;11525;51.152;4.456;2024-01-25T14:16:01;27.35;;;11.90;;